Main page
METAR-TAF:

METAR-TAF

Airports :

Chimoio Airport

Chimoio, Mozambique

latitude: 19-07S, longitude: 033-28E, elevation: 731 m

Current weather observation

The report was made 12 minutes ago, at 06:00 UTC
Temperature 25°C
Humidity 74%
Pressure 1019 hPa
Visibility: 4000 m
Few clouds at a height of 2000 ft
smoke

METAR: FQCH 010600Z /////KT 4000 FU FEW020 25/20 Q1019

Time: 08:12 (06:12 UTC)

Forecast

The report was made 2 hours and 12 minutes ago, at 04:00 UTC
Forecast valid from 01 at 06 UTC to 02 at 06 UTC
Wind 8 kt from the East
Visibility 10 km or more
no clouds below 1500 m and no cumulonimbus
From 01 at 0800 UTC
Wind 14 kt from the East/Southeast
Visibility 10 km or more
Broken clouds at a height of 2000 ft

TAF: FQCH 010400Z 0106/0206 09008KT CAVOK TX37/0113Z TN20/0202Z FM010800 12014KT 9999 BKN020

Weather observations and forecasts of more than 4000 airports (METAR and TAF reports).

The available stations are represented by yellow and red dots on the map.

Hover mouse over dot to see the name of the station.

Then click to see weather observations and forecasts.

To change the map : click on the green buttons with a black cross to zoom in, on the green button with a dash to zoom out, or on the green arrows for adjacent maps.


METAR-TAF: